CCCPS SCEL-SCSE
Flight info
| Callsign | CCCPS |
|---|---|
| Flight time | 0h 42m |
| Altitude | 34000 |
| Route | DONTI5B DONTI UQ802 KUGAP KUGAP5 |
| Aircraft | C750/M-SDFGHIRWXYZ/C |
Departure
| Time | 2026-04-25 22:36 |
|---|---|
| Airport | Comodoro Arturo Merino Benítez International Airport (SCEL) |
Arrival
| Time | 2026-04-25 23:18 |
|---|---|
| Airport | La Florida Airport (SCSE) |
| Time | Latitude | Longitude | Altitude | Speed | Heading |
|---|---|---|---|---|---|
| 2026-04-25 21:50 | -33.39224 | -70.79204 | 1561 ft | 0 kts | 0° |
| 2026-04-25 22:27 | -33.39221 | -70.79204 | 1561 ft | 1 kts | 0° |
| 2026-04-25 22:27 | -33.39218 | -70.79201 | 1561 ft | 1 kts | 30° |
| 2026-04-25 22:28 | -33.39212 | -70.79188 | 1561 ft | 3 kts | 75° |
| 2026-04-25 22:28 | -33.39220 | -70.79152 | 1561 ft | 6 kts | 132° |
| 2026-04-25 22:28 | -33.39265 | -70.79142 | 1561 ft | 9 kts | 178° |
| 2026-04-25 22:28 | -33.39316 | -70.79182 | 1561 ft | 13 kts | 270° |
| 2026-04-25 22:29 | -33.39320 | -70.79297 | 1561 ft | 18 kts | 267° |
| 2026-04-25 22:29 | -33.39325 | -70.79471 | 1561 ft | 25 kts | 268° |
| 2026-04-25 22:29 | -33.39335 | -70.79656 | 1561 ft | 22 kts | 267° |
| 2026-04-25 22:30 | -33.39343 | -70.79916 | 1561 ft | 12 kts | 269° |
| 2026-04-25 22:30 | -33.39337 | -70.79981 | 1562 ft | 5 kts | 287° |
| 2026-04-25 22:30 | -33.39317 | -70.80018 | 1562 ft | 7 kts | 310° |
| 2026-04-25 22:30 | -33.39285 | -70.80049 | 1563 ft | 10 kts | 333° |
| 2026-04-25 22:31 | -33.39166 | -70.80066 | 1563 ft | 16 kts | 355° |
| 2026-04-25 22:31 | -33.39039 | -70.80072 | 1563 ft | 21 kts | 359° |
| 2026-04-25 22:31 | -33.38880 | -70.80081 | 1564 ft | 23 kts | 0° |
| 2026-04-25 22:31 | -33.38735 | -70.80088 | 1563 ft | 20 kts | 357° |
| 2026-04-25 22:32 | -33.38576 | -70.80096 | 1563 ft | 25 kts | 355° |
| 2026-04-25 22:32 | -33.38440 | -70.80103 | 1563 ft | 11 kts | 360° |
| 2026-04-25 22:32 | -33.38383 | -70.80104 | 1563 ft | 5 kts | 356° |
| 2026-04-25 22:32 | -33.38349 | -70.80105 | 1563 ft | 10 kts | 359° |
| 2026-04-25 22:33 | -33.38282 | -70.80109 | 1562 ft | 19 kts | 356° |
| 2026-04-25 22:33 | -33.38058 | -70.80124 | 1563 ft | 22 kts | 356° |
| 2026-04-25 22:33 | -33.37912 | -70.80132 | 1562 ft | 20 kts | 357° |
| 2026-04-25 22:33 | -33.37784 | -70.80138 | 1563 ft | 17 kts | 357° |
| 2026-04-25 22:34 | -33.37679 | -70.80144 | 1563 ft | 13 kts | 359° |
| 2026-04-25 22:34 | -33.37575 | -70.80149 | 1563 ft | 21 kts | 357° |
| 2026-04-25 22:34 | -33.37375 | -70.80160 | 1563 ft | 33 kts | 359° |
| 2026-04-25 22:34 | -33.37170 | -70.80173 | 1563 ft | 26 kts | 351° |
| 2026-04-25 22:35 | -33.37107 | -70.80308 | 1569 ft | 17 kts | 253° |
| 2026-04-25 22:35 | -33.37224 | -70.80375 | 1569 ft | 27 kts | 179° |
| 2026-04-25 22:35 | -33.37382 | -70.80374 | 1570 ft | 38 kts | 180° |
| 2026-04-25 22:35 | -33.37927 | -70.80345 | 1571 ft | 126 kts | 176° |
| 2026-04-25 22:36 | -33.38949 | -70.80283 | 1956 ft | 160 kts | 177° |
| 2026-04-25 22:36 | -33.39979 | -70.80224 | 2360 ft | 184 kts | 178° |
| 2026-04-25 22:36 | -33.41172 | -70.80166 | 2782 ft | 206 kts | 179° |
| 2026-04-25 22:36 | -33.42621 | -70.80095 | 3499 ft | 211 kts | 178° |
| 2026-04-25 22:37 | -33.44086 | -70.80067 | 4284 ft | 218 kts | 184° |
| 2026-04-25 22:37 | -33.45495 | -70.80840 | 4652 ft | 254 kts | 220° |
| 2026-04-25 22:37 | -33.46323 | -70.82580 | 5211 ft | 273 kts | 255° |
| 2026-04-25 22:37 | -33.46488 | -70.84651 | 6340 ft | 269 kts | 268° |
| 2026-04-25 22:38 | -33.46512 | -70.86971 | 7374 ft | 274 kts | 268° |
| 2026-04-25 22:38 | -33.46596 | -70.88814 | 8283 ft | 275 kts | 265° |
| 2026-04-25 22:38 | -33.46774 | -70.91117 | 9240 ft | 283 kts | 265° |
| 2026-04-25 22:38 | -33.46952 | -70.93597 | 9153 ft | 297 kts | 265° |
| 2026-04-25 22:39 | -33.46912 | -70.95581 | 8963 ft | 293 kts | 280° |
| 2026-04-25 22:39 | -33.46091 | -70.97828 | 8945 ft | 305 kts | 302° |
| 2026-04-25 22:39 | -33.44468 | -70.99532 | 9626 ft | 314 kts | 330° |
| 2026-04-25 22:39 | -33.42478 | -71.00515 | 10950 ft | 308 kts | 338° |
| 2026-04-25 22:40 | -33.40362 | -71.01355 | 11322 ft | 332 kts | 341° |
| 2026-04-25 22:40 | -33.38074 | -71.02188 | 11590 ft | 353 kts | 341° |
| 2026-04-25 22:40 | -33.35726 | -71.03093 | 12456 ft | 354 kts | 340° |
| 2026-04-25 22:40 | -33.33578 | -71.03959 | 13159 ft | 358 kts | 339° |
| 2026-04-25 22:41 | -33.31476 | -71.04794 | 13839 ft | 362 kts | 340° |
| 2026-04-25 22:41 | -33.29075 | -71.05723 | 14559 ft | 365 kts | 340° |
| 2026-04-25 22:41 | -33.26595 | -71.06683 | 15235 ft | 369 kts | 339° |
| 2026-04-25 22:41 | -33.24330 | -71.07572 | 15863 ft | 373 kts | 338° |
| 2026-04-25 22:42 | -33.21852 | -71.08545 | 16583 ft | 377 kts | 338° |
| 2026-04-25 22:42 | -33.19311 | -71.09535 | 17291 ft | 380 kts | 338° |
| 2026-04-25 22:42 | -33.16780 | -71.10520 | 18041 ft | 383 kts | 338° |
| 2026-04-25 22:42 | -33.14306 | -71.11477 | 19391 ft | 365 kts | 337° |
| 2026-04-25 22:43 | -33.11884 | -71.12424 | 20044 ft | 372 kts | 336° |
| 2026-04-25 22:43 | -33.09307 | -71.13439 | 20808 ft | 377 kts | 335° |
| 2026-04-25 22:43 | -33.06754 | -71.14431 | 21498 ft | 384 kts | 335° |
| 2026-04-25 22:43 | -33.04276 | -71.15389 | 22214 ft | 388 kts | 335° |
| 2026-04-25 22:44 | -33.01666 | -71.16403 | 22943 ft | 393 kts | 334° |
| 2026-04-25 22:44 | -32.99042 | -71.17426 | 23677 ft | 399 kts | 334° |
| 2026-04-25 22:44 | -32.96374 | -71.18413 | 24280 ft | 407 kts | 337° |
| 2026-04-25 22:44 | -32.93540 | -71.18971 | 24938 ft | 419 kts | 346° |
| 2026-04-25 22:45 | -32.90592 | -71.19081 | 25598 ft | 427 kts | 351° |
| 2026-04-25 22:45 | -32.87605 | -71.19126 | 26236 ft | 430 kts | 351° |
| 2026-04-25 22:45 | -32.84634 | -71.19195 | 27252 ft | 421 kts | 350° |
| 2026-04-25 22:45 | -32.81697 | -71.19263 | 28051 ft | 424 kts | 349° |
| 2026-04-25 22:46 | -32.79448 | -71.19313 | 28482 ft | 429 kts | 349° |
| 2026-04-25 22:46 | -32.76659 | -71.19358 | 29139 ft | 432 kts | 350° |
| 2026-04-25 22:46 | -32.73646 | -71.19404 | 29798 ft | 435 kts | 349° |
| 2026-04-25 22:46 | -32.70600 | -71.19462 | 30414 ft | 438 kts | 349° |
| 2026-04-25 22:47 | -32.67561 | -71.19522 | 31019 ft | 440 kts | 349° |
| 2026-04-25 22:47 | -32.64476 | -71.19578 | 31638 ft | 442 kts | 349° |
| 2026-04-25 22:47 | -32.61386 | -71.19631 | 32218 ft | 444 kts | 349° |
| 2026-04-25 22:47 | -32.58251 | -71.19689 | 32788 ft | 446 kts | 349° |
| 2026-04-25 22:48 | -32.55188 | -71.19746 | 33342 ft | 448 kts | 348° |
| 2026-04-25 22:48 | -32.51937 | -71.19808 | 33917 ft | 451 kts | 349° |
| 2026-04-25 22:48 | -32.48744 | -71.19868 | 34133 ft | 462 kts | 349° |
| 2026-04-25 22:48 | -32.45458 | -71.19935 | 34131 ft | 476 kts | 349° |
| 2026-04-25 22:49 | -32.42119 | -71.19996 | 34133 ft | 490 kts | 349° |
| 2026-04-25 22:49 | -32.38635 | -71.20053 | 34137 ft | 502 kts | 349° |
| 2026-04-25 22:49 | -32.31615 | -71.20176 | 34141 ft | 516 kts | 350° |
| 2026-04-25 22:50 | -32.24538 | -71.20304 | 34133 ft | 518 kts | 350° |
| 2026-04-25 22:50 | -32.17127 | -71.20437 | 34127 ft | 518 kts | 350° |
| 2026-04-25 22:51 | -32.09927 | -71.20566 | 34109 ft | 516 kts | 350° |
| 2026-04-25 22:51 | -32.02672 | -71.20701 | 34109 ft | 518 kts | 350° |
| 2026-04-25 22:52 | -31.95493 | -71.20826 | 34106 ft | 518 kts | 350° |
| 2026-04-25 22:52 | -31.89091 | -71.20944 | 34120 ft | 517 kts | 350° |
| 2026-04-25 22:53 | -31.80993 | -71.21087 | 34096 ft | 516 kts | 350° |
| 2026-04-25 22:53 | -31.73736 | -71.20859 | 34021 ft | 514 kts | 354° |
| 2026-04-25 22:54 | -31.70217 | -71.20623 | 33232 ft | 497 kts | 353° |
| 2026-04-25 22:54 | -31.66827 | -71.20440 | 32592 ft | 480 kts | 353° |
| 2026-04-25 22:54 | -31.63544 | -71.20261 | 31974 ft | 468 kts | 353° |
| 2026-04-25 22:54 | -31.60313 | -71.20060 | 31356 ft | 462 kts | 354° |
| 2026-04-25 22:55 | -31.57091 | -71.19859 | 30756 ft | 467 kts | 354° |
| 2026-04-25 22:55 | -31.53805 | -71.19670 | 30136 ft | 475 kts | 354° |
| 2026-04-25 22:55 | -31.50466 | -71.19468 | 29460 ft | 474 kts | 355° |
| 2026-04-25 22:55 | -31.47197 | -71.19259 | 28834 ft | 470 kts | 355° |
| 2026-04-25 22:56 | -31.43932 | -71.19059 | 28214 ft | 466 kts | 355° |
| 2026-04-25 22:56 | -31.40696 | -71.18872 | 27597 ft | 463 kts | 355° |
| 2026-04-25 22:56 | -31.37491 | -71.18682 | 26980 ft | 461 kts | 355° |
| 2026-04-25 22:56 | -31.34293 | -71.18483 | 26374 ft | 458 kts | 355° |
| 2026-04-25 22:57 | -31.31172 | -71.18292 | 25771 ft | 455 kts | 355° |
| 2026-04-25 22:57 | -31.28022 | -71.18105 | 25183 ft | 452 kts | 355° |
| 2026-04-25 22:57 | -31.25891 | -71.17979 | 24771 ft | 451 kts | 355° |
| 2026-04-25 22:57 | -31.21763 | -71.17730 | 23986 ft | 447 kts | 356° |
| 2026-04-25 22:58 | -31.19671 | -71.17603 | 23575 ft | 445 kts | 356° |
| 2026-04-25 22:59 | -31.18205 | -71.17514 | 23254 ft | 443 kts | 356° |
| 2026-04-25 22:59 | -31.15111 | -71.17326 | 22657 ft | 436 kts | 356° |
| 2026-04-25 23:00 | -31.12095 | -71.17145 | 22085 ft | 431 kts | 356° |
| 2026-04-25 23:00 | -31.09146 | -71.16971 | 21526 ft | 426 kts | 356° |
| 2026-04-25 23:00 | -31.06122 | -71.16790 | 20949 ft | 422 kts | 357° |
| 2026-04-25 23:00 | -31.03217 | -71.16614 | 20392 ft | 417 kts | 357° |
| 2026-04-25 23:01 | -31.00333 | -71.16442 | 19845 ft | 413 kts | 357° |
| 2026-04-25 23:01 | -30.97483 | -71.16273 | 19290 ft | 409 kts | 358° |
| 2026-04-25 23:01 | -30.94647 | -71.16103 | 18796 ft | 404 kts | 358° |
| 2026-04-25 23:01 | -30.91850 | -71.15935 | 18357 ft | 400 kts | 358° |
| 2026-04-25 23:02 | -30.89083 | -71.15769 | 17875 ft | 396 kts | 358° |
| 2026-04-25 23:02 | -30.86340 | -71.15606 | 17436 ft | 393 kts | 358° |
| 2026-04-25 23:02 | -30.83576 | -71.15441 | 16993 ft | 391 kts | 359° |
| 2026-04-25 23:02 | -30.80841 | -71.15277 | 16550 ft | 389 kts | 359° |
| 2026-04-25 23:03 | -30.78164 | -71.15116 | 16128 ft | 385 kts | 359° |
| 2026-04-25 23:03 | -30.75502 | -71.14957 | 15704 ft | 381 kts | 360° |
| 2026-04-25 23:03 | -30.72861 | -71.14800 | 15283 ft | 379 kts | 360° |
| 2026-04-25 23:03 | -30.70190 | -71.14642 | 15048 ft | 391 kts | 0° |
| 2026-04-25 23:04 | -30.67457 | -71.14481 | 15052 ft | 393 kts | 0° |
| 2026-04-25 23:04 | -30.64805 | -71.14315 | 14665 ft | 365 kts | 0° |
| 2026-04-25 23:04 | -30.62264 | -71.14163 | 13264 ft | 370 kts | 1° |
| 2026-04-25 23:04 | -30.59729 | -71.14018 | 12957 ft | 351 kts | 1° |
| 2026-04-25 23:05 | -30.57359 | -71.13875 | 12760 ft | 346 kts | 1° |
| 2026-04-25 23:05 | -30.54903 | -71.13731 | 12397 ft | 358 kts | 1° |
| 2026-04-25 23:05 | -30.52408 | -71.13583 | 11998 ft | 357 kts | 1° |
| 2026-04-25 23:05 | -30.49934 | -71.13434 | 11607 ft | 356 kts | 1° |
| 2026-04-25 23:06 | -30.47435 | -71.13286 | 11206 ft | 353 kts | 1° |
| 2026-04-25 23:06 | -30.45070 | -71.13144 | 10811 ft | 335 kts | 1° |
| 2026-04-25 23:06 | -30.42814 | -71.13008 | 10418 ft | 315 kts | 1° |
| 2026-04-25 23:06 | -30.40653 | -71.12880 | 10070 ft | 297 kts | 1° |
| 2026-04-25 23:07 | -30.38611 | -71.12760 | 9728 ft | 284 kts | 1° |
| 2026-04-25 23:07 | -30.36685 | -71.12647 | 9413 ft | 280 kts | 2° |
| 2026-04-25 23:07 | -30.34757 | -71.12533 | 9114 ft | 280 kts | 2° |
| 2026-04-25 23:07 | -30.32757 | -71.12414 | 8808 ft | 283 kts | 2° |
| 2026-04-25 23:08 | -30.30803 | -71.12299 | 8504 ft | 285 kts | 2° |
| 2026-04-25 23:08 | -30.28706 | -71.12174 | 8169 ft | 286 kts | 2° |
| 2026-04-25 23:08 | -30.27419 | -71.12098 | 7964 ft | 286 kts | 2° |
| 2026-04-25 23:08 | -30.25041 | -71.11802 | 7517 ft | 286 kts | 15° |
| 2026-04-25 23:09 | -30.23425 | -71.10658 | 7398 ft | 276 kts | 42° |
| 2026-04-25 23:09 | -30.22088 | -71.08995 | 7507 ft | 279 kts | 49° |
| 2026-04-25 23:09 | -30.20788 | -71.07258 | 7512 ft | 284 kts | 49° |
| 2026-04-25 23:09 | -30.19499 | -71.05558 | 7509 ft | 284 kts | 48° |
| 2026-04-25 23:10 | -30.18182 | -71.03853 | 7506 ft | 285 kts | 48° |
| 2026-04-25 23:10 | -30.16865 | -71.02145 | 7503 ft | 284 kts | 48° |
| 2026-04-25 23:10 | -30.15501 | -71.00364 | 7502 ft | 284 kts | 48° |
| 2026-04-25 23:10 | -30.14198 | -70.98664 | 7400 ft | 287 kts | 48° |
| 2026-04-25 23:11 | -30.12836 | -70.96975 | 7094 ft | 288 kts | 43° |
| 2026-04-25 23:11 | -30.11124 | -70.95796 | 6757 ft | 285 kts | 26° |
| 2026-04-25 23:11 | -30.09332 | -70.94841 | 6475 ft | 280 kts | 25° |
| 2026-04-25 23:11 | -30.07580 | -70.93878 | 6155 ft | 272 kts | 26° |
| 2026-04-25 23:12 | -30.05809 | -70.93198 | 5760 ft | 276 kts | 6° |
| 2026-04-25 23:12 | -30.03915 | -70.93590 | 5432 ft | 272 kts | 337° |
| 2026-04-25 23:12 | -30.02484 | -70.94873 | 5143 ft | 251 kts | 309° |
| 2026-04-25 23:12 | -30.01677 | -70.96500 | 4927 ft | 229 kts | 295° |
| 2026-04-25 23:13 | -30.01206 | -70.97621 | 4774 ft | 217 kts | 295° |
| 2026-04-25 23:13 | -30.00559 | -70.99136 | 4531 ft | 205 kts | 296° |
| 2026-04-25 23:13 | -29.99942 | -71.00575 | 4295 ft | 197 kts | 295° |
| 2026-04-25 23:13 | -29.99352 | -71.01954 | 4096 ft | 194 kts | 296° |
| 2026-04-25 23:14 | -29.98755 | -71.03341 | 4077 ft | 187 kts | 296° |
| 2026-04-25 23:14 | -29.98152 | -71.04744 | 3851 ft | 191 kts | 295° |
| 2026-04-25 23:14 | -29.97551 | -71.06131 | 3536 ft | 187 kts | 296° |
| 2026-04-25 23:14 | -29.96968 | -71.07473 | 3210 ft | 185 kts | 295° |
| 2026-04-25 23:15 | -29.96395 | -71.08788 | 2811 ft | 186 kts | 296° |
| 2026-04-25 23:15 | -29.95808 | -71.10139 | 2424 ft | 185 kts | 296° |
| 2026-04-25 23:15 | -29.95272 | -71.11387 | 2396 ft | 154 kts | 296° |
| 2026-04-25 23:15 | -29.94843 | -71.12383 | 2168 ft | 135 kts | 296° |
| 2026-04-25 23:16 | -29.94445 | -71.13357 | 1872 ft | 125 kts | 295° |
| 2026-04-25 23:16 | -29.94082 | -71.14233 | 1552 ft | 121 kts | 294° |
| 2026-04-25 23:16 | -29.93718 | -71.15096 | 1270 ft | 116 kts | 295° |
| 2026-04-25 23:16 | -29.93366 | -71.15929 | 1073 ft | 111 kts | 295° |
| 2026-04-25 23:17 | -29.93027 | -71.16730 | 927 ft | 112 kts | 294° |
| 2026-04-25 23:17 | -29.92664 | -71.17553 | 823 ft | 119 kts | 296° |
| 2026-04-25 23:17 | -29.92243 | -71.18535 | 688 ft | 136 kts | 296° |
| 2026-04-25 23:17 | -29.91849 | -71.19473 | 479 ft | 117 kts | 295° |
| 2026-04-25 23:18 | -29.91630 | -71.19985 | 471 ft | 81 kts | 296° |
| 2026-04-25 23:18 | -29.91485 | -71.20322 | 476 ft | 42 kts | 297° |
| 2026-04-25 23:18 | -29.91325 | -71.20698 | 475 ft | 32 kts | 297° |
| 2026-04-25 23:18 | -29.91295 | -71.20824 | 477 ft | 13 kts | 266° |
| 2026-04-25 23:19 | -29.91285 | -71.20850 | 473 ft | 1 kts | 33° |
| 2026-04-25 23:19 | -29.91276 | -71.20830 | 474 ft | 4 kts | 89° |
| 2026-04-25 23:19 | -29.91286 | -71.20781 | 477 ft | 9 kts | 110° |
| 2026-04-25 23:19 | -29.91329 | -71.20698 | 476 ft | 12 kts | 124° |
| 2026-04-25 23:20 | -29.91367 | -71.20603 | 477 ft | 14 kts | 113° |
| 2026-04-25 23:20 | -29.91411 | -71.20498 | 476 ft | 14 kts | 118° |
| 2026-04-25 23:20 | -29.91455 | -71.20397 | 476 ft | 14 kts | 115° |
| 2026-04-25 23:20 | -29.91486 | -71.20322 | 476 ft | 14 kts | 117° |
| 2026-04-25 23:21 | -29.91546 | -71.20275 | 477 ft | 9 kts | 199° |
| 2026-04-25 23:21 | -29.91602 | -71.20302 | 477 ft | 8 kts | 191° |
| 2026-04-25 23:21 | -29.91634 | -71.20276 | 477 ft | 4 kts | 115° |
| 2026-04-25 23:21 | -29.91646 | -71.20250 | 473 ft | 4 kts | 117° |
| 2026-04-25 23:22 | -29.91663 | -71.20239 | 473 ft | 4 kts | 176° |
| 2026-04-25 23:22 | -29.91694 | -71.20248 | 477 ft | 3 kts | 208° |
| 2026-04-25 23:22 | -29.91702 | -71.20253 | 477 ft | 0 kts | 207° |